createdAt,value
2022-10-18T00:09:14.197Z,12.90
2022-10-18T00:19:17.217Z,14.30
2022-10-18T00:29:21.548Z,14.73
2022-10-18T00:39:24.542Z,13.20
2022-10-18T00:49:33.791Z,16.55
2022-10-18T00:59:38.204Z,12.27
2022-10-18T01:09:48.560Z,15.32
2022-10-18T01:20:18.393Z,16.25
2022-10-18T01:30:41.232Z,14.77
2022-10-18T01:40:47.623Z,15.38
2022-10-18T01:50:53.697Z,14.32
2022-10-18T02:01:04.924Z,12.77
2022-10-18T02:11:12.404Z,13.35
2022-10-18T02:21:19.423Z,15.80
2022-10-18T02:31:28.380Z,14.52
2022-10-18T02:41:32.743Z,16.40
2022-10-18T02:51:37.084Z,17.25
2022-10-18T03:01:40.106Z,15.18
2022-10-18T03:11:44.451Z,18.95
2022-10-18T03:21:47.453Z,17.97
2022-10-18T03:31:51.740Z,15.93
2022-10-18T03:41:54.659Z,18.67
2022-10-18T03:51:58.954Z,23.73
2022-10-18T04:02:01.947Z,16.27
2022-10-18T04:12:06.787Z,17.90
2022-10-18T04:22:10.454Z,20.98
2022-10-18T04:32:14.791Z,19.42
2022-10-18T04:42:17.775Z,17.67
2022-10-18T04:52:24.219Z,25.92
2022-10-18T05:02:30.285Z,30.00
2022-10-18T05:12:35.157Z,29.35
2022-10-18T05:22:38.269Z,21.98
2022-10-18T05:32:42.722Z,24.02
2022-10-18T05:42:45.747Z,28.83
2022-10-18T05:52:50.095Z,25.30
2022-10-18T06:02:54.432Z,26.87
2022-10-18T06:13:01.389Z,22.83
2022-10-18T06:23:04.361Z,26.40
2022-10-18T06:33:08.959Z,48.67
2022-10-18T06:43:20.449Z,23.73
2022-10-18T06:53:26.354Z,34.50
2022-10-18T07:13:34.701Z,25.00
2022-10-18T07:23:39.661Z,23.30
2022-10-18T07:33:44.524Z,31.13
2022-10-18T07:43:50.928Z,31.15
2022-10-18T07:53:55.558Z,28.27
2022-10-18T08:04:06.084Z,36.70
2022-10-18T08:14:11.943Z,27.80
2022-10-18T08:24:15.020Z,26.92
2022-10-18T08:34:19.972Z,24.83
2022-10-18T08:44:25.398Z,24.75
2022-10-18T08:54:35.979Z,24.35
2022-10-18T09:04:48.456Z,24.17
2022-10-18T09:15:19.618Z,22.13
2022-10-18T09:25:24.906Z,21.73
2022-10-18T09:35:35.134Z,18.95
2022-10-18T09:45:41.384Z,18.05
2022-10-18T09:56:02.327Z,18.08
2022-10-18T10:06:18.493Z,16.33
2022-10-18T10:16:24.371Z,12.48
2022-10-18T10:26:30.726Z,11.00
2022-10-18T10:36:35.501Z,11.02
2022-10-18T10:46:38.582Z,11.13
2022-10-18T10:56:55.499Z,10.20
2022-10-18T11:07:15.599Z,5.38
2022-10-18T11:17:28.913Z,5.10
2022-10-18T11:27:37.432Z,4.60
2022-10-18T11:38:01.529Z,3.70
2022-10-18T11:48:18.794Z,3.70
2022-10-18T11:58:47.907Z,3.45
2022-10-18T12:08:55.207Z,5.00
2022-10-18T12:19:02.514Z,3.47
2022-10-18T12:29:19.917Z,3.50
2022-10-18T12:39:38.739Z,3.73
2022-10-18T12:49:57.415Z,2.90
2022-10-18T14:01:24.468Z,4.00
2022-10-18T14:11:33.807Z,2.80
2022-10-18T14:21:43.285Z,2.20
2022-10-18T14:52:03.066Z,2.00
